EDT,Max TemperatureF,Mean TemperatureF,Min TemperatureF,Max Dew PointF,MeanDew PointF,Min DewpointF,Max Humidity, Mean Humidity, Min Humidity, Max Sea Level PressureIn, Mean Sea Level PressureIn, Min Sea Level PressureIn, Max VisibilityMiles, Mean VisibilityMiles, Min VisibilityMiles, Max Wind SpeedMPH, Mean Wind SpeedMPH, Max Gust SpeedMPH,PrecipitationIn, CloudCover, Events, WindDirDegrees
2012-9-1,82,73,62,64,56,51,87,59,36,30.14,30.11,30.04,10,10,10,8,5,,0.00,1,,7
2012-9-2,80,66,55,57,54,51,90,65,40,30.12,30.09,30.06,10,10,10,6,2,,0.00,1,,103
2012-9-3,73,68,62,67,65,59,94,89,78,30.12,30.09,30.04,10,6,1,10,5,17,0.00,7,Rain,150
2012-9-4,78,72,66,70,68,64,94,89,71,30.07,29.92,29.83,10,7,1,12,6,16,1.36,8,Rain-Thunderstorm,239
2012-9-5,78,70,62,64,61,58,94,83,54,29.96,29.91,29.86,10,9,2,9,5,,0.00,6,,343
2012-9-6,82,73,64,65,62,59,90,73,54,29.96,29.91,29.88,10,10,10,12,5,,0.00,2,,272
2012-9-7,80,70,60,63,61,54,100,83,43,30.01,29.95,29.79,10,6,0,8,1,,0.00,2,Fog,205
2012-9-8,72,62,54,64,58,49,94,82,68,29.83,29.66,29.56,10,8,2,32,13,44,0.45,5,Rain-Thunderstorm,247
2012-9-9,63,56,50,54,51,44,94,83,56,30.04,29.93,29.85,10,9,2,12,4,,0.06,7,Rain,274
2012-9-10,64,54,46,47,42,37,87,69,38,30.22,30.15,30.05,10,10,10,17,6,23,0.00,2,,322
2012-9-11,70,56,43,51,46,41,93,67,44,30.33,30.29,30.23,10,10,10,8,2,,0.00,0,,248
2012-9-12,77,64,51,52,48,43,83,60,32,30.38,30.33,30.30,10,10,10,9,2,,0.00,0,,186
2012-9-13,78,66,55,56,54,50,81,62,43,30.37,30.32,30.28,10,10,10,9,2,,0.00,1,,222
2012-9-14,77,63,50,59,54,47,94,77,46,30.27,30.20,30.09,10,10,5,21,9,37,0.13,4,Rain-Thunderstorm,273
2012-9-15,64,54,45,50,45,39,93,76,50,30.29,30.24,30.18,10,10,10,15,9,22,0.00,5,,297
2012-9-16,68,55,44,49,46,42,93,70,51,30.20,30.16,30.12,10,10,10,12,6,18,0.00,1,,267
2012-9-17,70,58,48,52,47,42,90,64,39,30.13,30.05,29.92,10,10,10,16,4,25,0.00,0,,181
2012-9-18,68,58,50,61,57,45,94,88,76,29.88,29.68,29.55,10,6,1,23,9,32,1.17,8,Rain,215
2012-9-19,57,50,42,44,40,35,89,72,45,30.22,30.09,29.89,10,10,10,15,7,24,0.00,4,Rain,284
2012-9-20,66,54,41,48,41,35,86,62,42,30.20,30.10,30.02,10,10,10,18,7,28,0.00,1,,173
2012-9-21,71,62,55,55,50,46,84,66,46,30.02,29.97,29.88,10,10,10,16,7,24,0.01,6,Rain,188
2012-9-22,64,54,44,57,51,41,93,79,60,30.00,29.81,29.70,10,10,2,22,13,37,0.26,6,Rain,232
2012-9-23,55,48,42,43,40,35,93,78,55,30.18,30.09,30.00,10,10,10,22,8,30,0.01,5,Rain,266
2012-9-24,55,47,39,40,37,34,93,72,48,30.22,30.15,30.07,10,10,10,14,6,23,0.01,3,,246
2012-9-25,68,56,45,50,39,34,86,55,34,30.11,30.07,30.02,10,10,10,17,10,25,0.00,2,,217
2012-9-26,63,58,53,58,55,50,94,90,84,30.14,30.05,29.99,10,8,2,16,8,22,0.02,7,Rain,235
2012-9-27,64,54,45,52,43,38,90,68,41,30.26,30.20,30.14,10,10,6,10,5,22,0.00,5,Rain,36
2012-9-28,53,50,48,49,47,45,96,91,74,30.16,30.09,30.06,10,5,0,9,4,,0.24,8,Fog-Rain,339
2012-9-29,60,50,44,46,44,39,93,77,51,30.08,30.03,29.96,10,10,10,9,4,,0.00,6,,318
2012-9-30,55,49,44,46,44,42,93,89,66,29.95,29.91,29.87,10,5,0,9,2,,0.04,7,Fog-Rain,335